Time;durP1;ratioP1;P1;durP2;ratioP2;P2;SDS_P1;SDS_P2;PMS_P1;PMS_P2;Temp;Humidity;BMP_temperature;BMP_pressure;BME280_temperature;BME280_humidity;BME280_pressure;Samples;Min_cycle;Max_cycle;Signal;HPM_P1;HPM_P2
2022/11/03 00:01:09;;;;;;;8.00;2.47;;;;;;;18.80;38.40;98589.94;5034010;28;20201;-56
2022/11/03 00:03:35;;;;;;;6.00;3.08;;;;;;;18.80;38.16;98593.41;5016200;28;20173;-56
2022/11/03 00:06:03;;;;;;;7.28;2.50;;;;;;;18.69;38.53;98593.63;5033991;28;20177;-56
2022/11/03 00:08:33;;;;;;;5.20;2.60;;;;;;;18.65;38.66;98591.47;5033680;28;20175;-56
2022/11/03 00:11:11;;;;;;;9.80;3.58;;;;;;;18.53;38.95;98590.06;5033931;28;20239;-56
2022/11/03 00:13:38;;;;;;;8.35;2.88;;;;;;;18.40;39.29;98587.81;5033820;28;20169;-56
2022/11/03 00:16:04;;;;;;;3.67;2.53;;;;;;;18.32;39.37;98595.59;5033468;28;20207;-56
2022/11/03 00:18:30;;;;;;;5.18;2.58;;;;;;;18.22;39.79;98593.97;5033756;28;20188;-56
2022/11/03 00:21:00;;;;;;;12.18;2.90;;;;;;;18.25;39.83;98597.09;5033453;28;20169;-56
2022/11/03 00:23:28;;;;;;;5.35;2.70;;;;;;;18.27;39.86;98603.03;5033340;28;20198;-56
2022/11/03 00:25:53;;;;;;;9.55;3.10;;;;;;;18.24;40.78;98603.31;5033150;28;20182;-56
2022/11/03 00:28:19;;;;;;;6.63;2.35;;;;;;;18.26;40.92;98604.03;5034389;28;20190;-56
2022/11/03 00:30:44;;;;;;;9.45;3.00;;;;;;;18.05;41.48;98597.38;5033177;28;20567;-56
2022/11/03 00:33:10;;;;;;;7.80;2.47;;;;;;;17.89;41.86;98605.06;5033121;28;20198;-56
2022/11/03 00:35:35;;;;;;;5.88;2.20;;;;;;;17.87;42.27;98601.75;5032998;28;20194;-56
2022/11/03 00:38:00;;;;;;;4.30;2.20;;;;;;;17.80;42.17;98603.31;5033153;28;20247;-56
2022/11/03 00:40:26;;;;;;;5.47;2.38;;;;;;;17.87;41.28;98607.81;5032990;28;20177;-56
2022/11/03 00:42:51;;;;;;;6.90;2.17;;;;;;;17.94;40.92;98601.03;5032903;28;20170;-56
2022/11/03 00:45:16;;;;;;;6.78;2.60;;;;;;;18.10;40.50;98611.69;5032896;28;20688;-56
2022/11/03 00:48:28;;;;;;;9.40;2.92;;;;;;;18.15;40.38;98593.75;5032906;28;20181;-56
2022/11/03 00:50:27;;;;;;;6.40;2.65;;;;;;;18.17;40.05;98601.44;5032760;28;20555;-56
2022/11/03 00:52:52;;;;;;;9.02;3.30;;;;;;;18.18;40.06;98592.63;5032751;28;20177;-57
2022/11/03 00:55:18;;;;;;;4.53;2.30;;;;;;;18.19;39.73;98594.28;5032708;28;20194;-57
2022/11/03 00:57:44;;;;;;;6.07;3.03;;;;;;;18.20;39.65;98593.28;5033014;28;20182;-56
2022/11/03 01:00:10;;;;;;;8.60;2.67;;;;;;;18.21;39.60;98590.53;5032932;28;20689;-56
2022/11/03 01:02:36;;;;;;;7.45;2.72;;;;;;;18.19;39.91;98589.03;5032814;28;20207;-56
2022/11/03 01:07:45;;;;;;;6.22;2.80;;;;;;;18.15;39.92;98588.50;5033032;28;20165;-56
2022/11/03 01:10:10;;;;;;;8.35;2.10;;;;;;;18.11;39.94;98599.41;5032791;28;20173;-56
2022/11/03 01:12:36;;;;;;;8.13;3.05;;;;;;;18.11;39.86;98581.91;5032470;28;20173;-56
2022/11/03 01:15:01;;;;;;;13.73;3.60;;;;;;;18.24;39.89;98581.56;5032426;28;20199;-56
2022/11/03 01:17:27;;;;;;;11.20;3.15;;;;;;;18.26;39.91;98577.81;5032483;28;20300;-56
2022/11/03 01:19:53;;;;;;;7.90;2.60;;;;;;;18.23;39.86;98582.50;5032460;28;20276;-56
2022/11/03 01:22:20;;;;;;;7.03;2.53;;;;;;;18.25;39.99;98580.59;5032349;28;20173;-56
2022/11/03 01:24:46;;;;;;;5.32;2.30;;;;;;;18.21;39.83;98571.38;5032244;28;20178;-56
2022/11/03 01:27:14;;;;;;;10.65;2.67;;;;;;;18.33;39.97;98581.53;5032284;28;20700;-56
2022/11/03 01:29:40;;;;;;;4.32;2.40;;;;;;;18.18;39.68;98569.88;5032260;28;20174;-56
2022/11/03 01:32:07;;;;;;;7.88;2.50;;;;;;;18.10;40.05;98575.03;5032240;28;20184;-56
2022/11/03 01:34:32;;;;;;;8.10;3.17;;;;;;;18.16;40.21;98578.84;5032412;28;20186;-56
2022/11/03 01:36:58;;;;;;;5.10;2.28;;;;;;;18.11;40.24;98579.28;5031860;28;20667;-56
2022/11/03 01:39:23;;;;;;;8.98;2.60;;;;;;;18.12;40.25;98572.28;5031604;28;20261;-56
2022/11/03 01:41:50;;;;;;;3.70;2.05;;;;;;;18.14;40.16;98576.38;5032350;28;20571;-56
2022/11/03 01:44:16;;;;;;;8.82;2.10;;;;;;;18.21;39.88;98579.22;5031815;28;20214;-56
2022/11/03 01:46:51;;;;;;;2.63;2.05;;;;;;;18.29;39.32;98569.66;5032463;28;20206;-56
2022/11/03 01:49:23;;;;;;;6.25;2.35;;;;;;;18.25;39.42;98559.63;5031972;28;20223;-56
2022/11/03 01:51:55;;;;;;;3.92;1.90;;;;;;;18.41;39.56;98576.34;5031964;28;20567;-56
2022/11/03 01:54:23;;;;;;;5.80;2.65;;;;;;;18.44;39.52;98577.84;5031948;28;20166;-56
2022/11/03 01:56:50;;;;;;;5.65;2.35;;;;;;;18.39;39.58;98573.06;5032084;28;20572;-56
2022/11/03 01:59:17;;;;;;;5.75;2.22;;;;;;;18.38;39.49;98579.28;5031844;28;20178;-56
2022/11/03 02:01:44;;;;;;;9.52;2.38;;;;;;;18.42;39.52;98583.22;5031722;28;20170;-56
2022/11/03 02:04:19;;;;;;;4.30;1.90;;;;;;;18.37;39.30;98585.47;5032054;28;20170;-57
2022/11/03 02:06:52;;;;;;;7.25;2.40;;;;;;;18.28;39.43;98578.47;5032093;28;20161;-56
2022/11/03 02:09:18;;;;;;;8.15;2.92;;;;;;;18.29;39.39;98579.28;5032039;28;20697;-56
2022/11/03 02:14:27;;;;;;;5.63;2.20;;;;;;;18.25;39.55;98594.50;5032600;28;20169;-56
2022/11/03 02:16:55;;;;;;;7.00;2.65;;;;;;;18.11;39.58;98581.06;5031622;28;20189;-56
2022/11/03 02:19:38;;;;;;;7.93;2.08;;;;;;;18.22;39.46;98593.97;5031996;28;20264;-56
2022/11/03 02:22:22;;;;;;;6.10;1.90;;;;;;;18.32;39.40;98595.59;5031970;28;20170;-56
2022/11/03 02:24:52;;;;;;;4.88;2.20;;;;;;;18.23;39.24;98595.59;5031642;28;20174;-56
2022/11/03 02:27:19;;;;;;;6.65;2.40;;;;;;;18.23;39.28;98578.09;5031612;28;20177;-56
2022/11/03 02:29:45;;;;;;;5.82;2.75;;;;;;;18.26;39.60;98592.72;5031627;28;20655;-56
2022/11/03 02:32:21;;;;;;;5.25;2.03;;;;;;;18.18;39.64;98592.63;5031626;28;20184;-56
2022/11/03 02:34:52;;;;;;;5.90;2.47;;;;;;;18.22;39.53;98593.97;5031876;28;20536;-56
2022/11/03 02:37:27;;;;;;;7.18;2.40;;;;;;;18.15;39.80;98596.38;5013760;28;20200;-56
2022/11/03 02:40:15;;;;;;;8.45;2.67;;;;;;;18.20;39.72;98596.72;5031610;28;20162;-55
2022/11/03 02:42:45;;;;;;;6.47;1.67;;;;;;;18.13;39.68;98600.09;5031449;28;20162;-56
2022/11/03 02:45:13;;;;;;;5.75;2.20;;;;;;;18.21;39.59;98603.63;5031519;28;20201;-56
2022/11/03 02:47:40;;;;;;;5.75;2.40;;;;;;;17.99;39.74;98571.78;5031456;28;20181;-56
2022/11/03 02:50:09;;;;;;;3.47;2.45;;;;;;;18.17;39.52;98586.56;5034020;28;20174;-56
2022/11/03 02:52:52;;;;;;;7.40;2.50;;;;;;;18.19;39.60;98596.91;5035364;28;20235;-56
2022/11/03 02:55:36;;;;;;;8.35;2.60;;;;;;;18.18;39.67;98598.69;5035333;28;20579;-56
2022/11/03 02:58:23;;;;;;;4.32;2.05;;;;;;;18.05;40.21;98602.63;5035340;28;20162;-56
2022/11/03 03:00:54;;;;;;;4.13;2.33;;;;;;;18.02;40.02;98603.72;5034933;28;20658;-56
2022/11/03 03:03:26;;;;;;;6.65;2.40;;;;;;;18.00;40.04;98607.47;5035222;28;20249;-56
2022/11/03 03:06:01;;;;;;;5.32;2.45;;;;;;;17.93;40.37;98594.16;5017245;28;20559;-56
2022/11/03 03:08:29;;;;;;;7.45;2.75;;;;;;;17.94;40.16;98605.44;5034875;28;20169;-56
2022/11/03 03:10:58;;;;;;;5.15;2.13;;;;;;;17.99;40.24;98592.72;5035041;28;20331;-56
2022/11/03 03:13:24;;;;;;;6.45;2.63;;;;;;;18.07;40.10;98598.06;5034979;28;20607;-56
2022/11/03 03:16:10;;;;;;;4.10;1.90;;;;;;;18.09;40.10;98598.75;5034638;28;20587;-56
2022/11/03 03:19:15;;;;;;;6.25;2.28;;;;;;;18.06;39.99;98597.25;5035011;28;20620;-56
2022/11/03 03:21:44;;;;;;;3.33;2.20;;;;;;;17.97;40.33;98599.91;5034638;28;20168;-56
2022/11/03 03:24:36;;;;;;;6.05;2.15;;;;;;;18.12;39.90;98603.69;5034444;28;20185;-56
2022/11/03 03:27:06;;;;;;;5.30;2.00;;;;;;;18.19;39.79;98604.75;5034468;28;20238;-56
2022/11/03 03:29:38;;;;;;;2.92;1.95;;;;;;;18.18;39.63;98610.97;5034643;28;20249;-56
2022/11/03 03:32:08;;;;;;;7.90;1.95;;;;;;;18.26;39.58;98595.31;5034486;28;20166;-56
2022/11/03 03:34:36;;;;;;;5.38;2.00;;;;;;;18.22;39.53;98589.56;5034642;28;20256;-56
2022/11/03 03:37:05;;;;;;;4.60;2.25;;;;;;;18.25;39.65;98601.53;5034144;28;20663;-56
2022/11/03 03:39:35;;;;;;;7.53;2.20;;;;;;;18.24;39.39;98602.53;5034290;28;20232;-56
2022/11/03 03:42:02;;;;;;;5.63;2.08;;;;;;;18.19;39.49;98602.94;5034273;28;20162;-56
2022/11/03 03:44:28;;;;;;;4.28;1.95;;;;;;;18.25;39.46;98607.59;5033998;28;20209;-56
2022/11/03 03:47:05;;;;;;;3.72;1.90;;;;;;;18.27;39.52;98610.06;5034085;28;20165;-56
2022/11/03 03:49:31;;;;;;;6.38;1.90;;;;;;;18.37;39.02;98613.47;5034276;28;20162;-56
2022/11/03 03:51:56;;;;;;;5.75;2.35;;;;;;;18.40;39.22;98614.00;5016288;28;20237;-56
2022/11/03 03:54:22;;;;;;;7.88;2.40;;;;;;;18.44;38.92;98609.28;5034027;28;20563;-56
2022/11/03 03:56:52;;;;;;;4.72;2.08;;;;;;;18.46;38.74;98609.94;5034176;28;20193;-56
2022/11/03 03:59:18;;;;;;;8.25;2.30;;;;;;;18.45;38.73;98608.31;5034154;28;20162;-56
2022/11/03 04:01:43;;;;;;;8.30;2.50;;;;;;;18.50;38.82;98609.53;5032970;28;20181;-56
2022/11/03 04:04:09;;;;;;;5.18;2.10;;;;;;;18.55;38.55;98607.28;5033816;28;20174;-56
2022/11/03 04:06:34;;;;;;;6.32;1.85;;;;;;;18.59;38.21;98599.94;5033961;28;20166;-56
2022/11/03 04:08:59;;;;;;;6.20;2.00;;;;;;;18.61;38.21;98598.00;5033966;28;20595;-56
2022/11/03 04:22:21;;;;;;;7.13;2.92;;;;;;;18.68;38.30;98596.41;5033963;28;20216;-56
2022/11/03 04:24:50;;;;;;;5.50;2.13;;;;;;;18.70;38.08;98604.94;5033635;28;20213;-56
2022/11/03 04:27:19;;;;;;;6.65;3.42;;;;;;;18.73;38.12;98605.47;5034013;28;20624;-56
2022/11/03 04:29:44;;;;;;;7.80;2.60;;;;;;;18.77;38.15;98616.50;5033523;28;20178;-56
2022/11/03 04:32:16;;;;;;;3.17;2.28;;;;;;;18.65;38.32;98607.22;5033377;28;20272;-56
2022/11/03 04:34:42;;;;;;;5.30;2.30;;;;;;;18.67;38.23;98611.31;5015799;28;20666;-56
2022/11/03 04:37:14;;;;;;;8.95;1.98;;;;;;;18.57;38.81;98609.72;5033072;28;20217;-56
2022/11/03 04:39:40;;;;;;;5.45;2.25;;;;;;;18.42;38.96;98596.31;5033147;28;20186;-56
2022/11/03 04:42:18;;;;;;;5.22;2.13;;;;;;;18.43;38.67;98605.03;5033045;28;20231;-56
2022/11/03 04:44:44;;;;;;;5.53;2.03;;;;;;;18.43;39.24;98611.06;5032893;28;20205;-56
2022/11/03 04:47:12;;;;;;;6.55;1.98;;;;;;;18.36;39.41;98610.03;5033177;28;20181;-56
2022/11/03 04:49:38;;;;;;;5.97;2.35;;;;;;;18.20;39.75;98615.06;5032941;28;20170;-56
2022/11/03 04:52:21;;;;;;;6.07;2.55;;;;;;;18.16;39.88;98625.97;5032864;28;20674;-56
2022/11/03 04:54:49;;;;;;;7.65;2.08;;;;;;;17.96;40.36;98619.22;5033037;28;20169;-56
2022/11/03 04:57:16;;;;;;;4.90;2.05;;;;;;;17.92;40.58;98634.41;5032756;28;20245;-56
2022/11/03 04:59:44;;;;;;;10.40;2.70;;;;;;;17.76;40.93;98630.72;5032750;28;20210;-56
2022/11/03 05:02:13;;;;;;;5.18;2.15;;;;;;;17.61;41.37;98640.84;5032651;28;20220;-56
2022/11/03 05:04:40;;;;;;;3.72;2.03;;;;;;;17.42;41.93;98646.16;5032585;28;20212;-56
2022/11/03 05:07:33;;;;;;;5.93;2.42;;;;;;;17.36;41.98;98648.47;5032622;28;20174;-56
2022/11/03 05:09:59;;;;;;;3.90;2.13;;;;;;;17.26;42.37;98645.06;5032586;28;20174;-56
2022/11/03 05:12:25;;;;;;;4.88;2.58;;;;;;;17.14;42.43;98635.72;5032501;28;20206;-56
2022/11/03 05:14:51;;;;;;;3.72;2.00;;;;;;;17.13;42.65;98657.63;5015348;28;20181;-55
2022/11/03 05:17:27;;;;;;;7.47;2.15;;;;;;;17.11;42.69;98656.91;5032517;28;20201;-56
2022/11/03 05:20:00;;;;;;;4.22;1.98;;;;;;;17.17;42.69;98657.19;5032759;28;20177;-55
2022/11/03 05:22:32;;;;;;;5.88;2.35;;;;;;;17.14;42.67;98664.50;5032351;28;20158;-56
2022/11/03 05:25:02;;;;;;;7.03;3.00;;;;;;;16.94;43.00;98623.63;5032776;28;20215;-56
2022/11/03 05:27:29;;;;;;;5.07;1.90;;;;;;;17.08;42.97;98659.81;5032560;28;20161;-55
2022/11/03 05:29:58;;;;;;;4.63;2.00;;;;;;;17.14;42.80;98661.88;5032180;28;20182;-56
2022/11/03 05:32:32;;;;;;;6.18;2.80;;;;;;;17.17;43.09;98661.56;5032213;28;20170;-56
2022/11/03 05:34:57;;;;;;;8.60;2.95;;;;;;;17.09;43.32;98664.88;5032177;28;20639;-56
2022/11/03 05:37:25;;;;;;;3.05;1.83;;;;;;;17.05;43.26;98667.94;5032030;28;20190;-56
2022/11/03 05:39:52;;;;;;;4.40;1.80;;;;;;;16.96;43.54;98646.06;5032784;28;20181;-56
2022/11/03 05:42:21;;;;;;;4.88;2.10;;;;;;;17.14;43.40;98662.69;5032094;28;20185;-56
2022/11/03 05:44:47;;;;;;;24.75;3.80;;;;;;;17.12;43.54;98674.25;5032266;28;20217;-56
2022/11/03 05:47:20;;;;;;;3.72;2.13;;;;;;;16.96;43.87;98679.22;5032054;28;20170;-56
2022/11/03 05:49:51;;;;;;;5.50;2.10;;;;;;;16.89;43.91;98683.34;5032104;28;20178;-56
2022/11/03 05:52:21;;;;;;;6.90;2.22;;;;;;;16.70;44.28;98680.72;5032119;28;20165;-56
2022/11/03 05:54:47;;;;;;;3.33;2.03;;;;;;;16.72;44.55;98694.47;5032559;28;20185;-56
2022/11/03 05:57:13;;;;;;;9.63;2.25;;;;;;;16.69;44.75;98699.97;5031814;28;20691;-56
2022/11/03 05:59:39;;;;;;;6.80;2.22;;;;;;;16.59;45.00;98701.75;5032211;28;20174;-55
2022/11/03 06:02:35;;;;;;;5.90;2.45;;;;;;;16.63;44.79;98703.13;5031776;28;20713;-55
2022/11/03 06:05:02;;;;;;;5.28;2.20;;;;;;;16.74;44.82;98710.84;5031122;28;20575;-56
2022/11/03 06:07:30;;;;;;;7.18;2.60;;;;;;;16.78;44.75;98715.66;5032116;28;20239;-56
2022/11/03 06:09:57;;;;;;;6.95;2.70;;;;;;;16.96;44.38;98724.47;5032154;28;20181;-56
2022/11/03 06:12:24;;;;;;;4.20;1.90;;;;;;;17.00;44.48;98731.09;5031925;28;20174;-56
2022/11/03 06:14:50;;;;;;;6.78;2.05;;;;;;;17.07;44.39;98733.97;5031995;28;20174;-57
2022/11/03 06:17:23;;;;;;;7.47;2.45;;;;;;;17.14;44.39;98735.09;5032337;28;20201;-57
2022/11/03 06:19:50;;;;;;;5.18;2.03;;;;;;;17.14;44.21;98737.72;5032052;28;20249;-54
2022/11/03 06:22:30;;;;;;;8.68;3.03;;;;;;;17.19;44.44;98740.75;5014022;28;20177;-56
2022/11/03 06:25:00;;;;;;;14.05;3.20;;;;;;;17.20;44.49;98751.03;5034035;28;20260;-56
2022/11/03 06:27:29;;;;;;;5.18;2.80;;;;;;;17.33;44.35;98748.16;5035787;28;20166;-55
2022/11/03 06:30:21;;;;;;;6.70;2.17;;;;;;;17.47;43.67;98759.06;5035537;28;20647;-55
2022/11/03 06:32:46;;;;;;;6.60;2.33;;;;;;;17.56;44.15;98757.38;5035705;28;20165;-55
2022/11/03 06:35:13;;;;;;;7.18;2.30;;;;;;;17.64;43.84;98770.59;5035386;28;20221;-55
2022/11/03 06:37:39;;;;;;;2.60;1.92;;;;;;;17.76;43.23;98762.44;5035387;28;20181;-55
2022/11/03 06:40:14;;;;;;;6.68;1.92;;;;;;;17.95;42.88;98777.28;5035644;28;20586;-55
2022/11/03 06:42:39;;;;;;;6.55;2.75;;;;;;;17.99;42.76;98782.09;5035601;28;20227;-55
2022/11/03 06:45:19;;;;;;;7.97;2.80;;;;;;;18.09;42.35;98779.44;5035418;28;20194;-55
2022/11/03 06:47:44;;;;;;;4.07;2.20;;;;;;;18.14;42.41;98785.09;5035526;28;20174;-55
2022/11/03 06:50:21;;;;;;;6.60;2.53;;;;;;;18.15;42.69;98787.56;5035352;28;20180;-55
2022/11/03 06:52:48;;;;;;;10.10;2.78;;;;;;;18.23;42.38;98789.44;5035377;28;20154;-55
2022/11/03 06:55:27;;;;;;;6.47;1.90;;;;;;;18.29;41.84;98791.50;5035184;28;20177;-56
2022/11/03 06:57:56;;;;;;;6.72;2.08;;;;;;;18.36;42.03;98792.63;5017311;28;20185;-55
2022/11/03 07:00:24;;;;;;;6.65;2.50;;;;;;;18.37;41.71;98775.94;5034890;28;20173;-55
2022/11/03 07:02:56;;;;;;;7.45;2.28;;;;;;;18.53;41.40;98786.63;5016538;28;20182;-55
2022/11/03 07:05:27;;;;;;;9.68;3.15;;;;;;;18.49;41.86;98787.88;5034504;28;20674;-55
2022/11/03 07:07:57;;;;;;;6.10;3.20;;;;;;;18.48;42.33;98783.59;5035050;28;20182;-55
2022/11/03 07:10:25;;;;;;;12.30;3.78;;;;;;;18.54;42.29;98791.69;5034667;28;20669;-55
2022/11/03 07:12:52;;;;;;;4.45;3.13;;;;;;;18.55;42.16;98796.00;5034878;28;20181;-55
2022/11/03 07:15:33;;;;;;;7.15;4.15;;;;;;;18.48;42.30;98799.34;5034656;28;20236;-56
2022/11/03 07:18:00;;;;;;;8.38;3.90;;;;;;;18.45;42.85;98800.44;5034676;28;20166;-56
2022/11/03 07:20:26;;;;;;;10.18;4.32;;;;;;;18.37;43.11;98796.91;5034591;28;20552;-56
2022/11/03 07:22:52;;;;;;;9.43;4.10;;;;;;;18.37;43.18;98808.19;5034567;28;20181;-55
2022/11/03 07:25:20;;;;;;;8.68;3.97;;;;;;;18.32;43.53;98807.81;5034486;28;20712;-56
2022/11/03 07:27:50;;;;;;;6.47;4.03;;;;;;;18.29;43.72;98808.06;5034735;28;20224;-56
2022/11/03 07:30:20;;;;;;;5.93;3.58;;;;;;;18.34;43.54;98812.88;5034450;28;20170;-56
2022/11/03 07:32:48;;;;;;;9.98;3.67;;;;;;;18.22;44.05;98821.84;5034643;28;20541;-56
2022/11/03 07:35:16;;;;;;;10.88;3.35;;;;;;;18.23;44.47;98816.47;5033711;28;20358;-56
2022/11/03 07:37:46;;;;;;;8.02;3.67;;;;;;;18.30;44.34;98824.59;5033958;28;20569;-56
2022/11/03 07:40:20;;;;;;;10.55;4.07;;;;;;;18.26;44.53;98820.63;5034592;28;20661;-56
2022/11/03 07:42:45;;;;;;;4.38;3.45;;;;;;;18.31;44.53;98821.00;5034167;28;20166;-56
2022/11/03 07:45:39;;;;;;;7.90;4.20;;;;;;;18.34;44.61;98816.34;5034173;28;20587;-56
2022/11/03 07:48:18;;;;;;;8.20;4.32;;;;;;;18.40;44.78;98818.38;5034190;28;20631;-56
2022/11/03 07:50:43;;;;;;;9.82;4.78;;;;;;;18.47;44.45;98816.03;5034081;28;20619;-56
2022/11/03 07:53:17;;;;;;;8.00;4.50;;;;;;;18.49;44.38;98816.69;5034015;28;20185;-56
2022/11/03 07:55:45;;;;;;;8.73;4.70;;;;;;;18.48;44.70;98817.69;5033741;28;20229;-56
2022/11/03 07:58:42;;;;;;;12.32;4.93;;;;;;;18.59;44.46;98807.00;5034253;28;20567;-56
2022/11/03 08:01:28;;;;;;;12.68;5.05;;;;;;;18.75;43.92;98808.03;4990034;28;20269;-55
2022/11/03 08:03:57;;;;;;;6.57;4.72;;;;;;;18.66;43.97;98798.38;5034144;28;20161;-55
2022/11/03 08:06:23;;;;;;;12.20;5.38;;;;;;;18.70;43.76;98804.16;5033799;28;20252;-55
2022/11/03 08:08:48;;;;;;;9.85;5.03;;;;;;;18.71;44.19;98805.84;5033169;28;20256;-55
2022/11/03 08:11:14;;;;;;;11.95;4.97;;;;;;;18.72;44.12;98791.75;5033802;28;20189;-55
2022/11/03 08:13:39;;;;;;;13.57;5.10;;;;;;;18.82;43.50;98797.78;5033352;28;20253;-55
2022/11/03 08:16:05;;;;;;;11.57;4.43;;;;;;;18.81;43.23;98790.88;5033466;28;20221;-56
2022/11/03 08:18:30;;;;;;;8.82;4.38;;;;;;;18.83;43.28;98789.75;5033557;28;20177;-56
2022/11/03 08:20:55;;;;;;;11.35;4.50;;;;;;;18.91;42.87;98791.63;5033796;28;20671;-56
2022/11/03 08:23:21;;;;;;;11.57;4.78;;;;;;;18.94;43.07;98799.22;5033472;28;20213;-56
2022/11/03 08:25:46;;;;;;;12.63;4.68;;;;;;;18.98;42.58;98803.19;5033320;28;20292;-56
2022/11/03 08:28:12;;;;;;;11.25;4.82;;;;;;;18.93;43.15;98795.75;5033651;28;20265;-56
2022/11/03 08:30:37;;;;;;;18.15;5.25;;;;;;;19.02;43.05;98799.31;5033323;28;20681;-55
2022/11/03 08:33:03;;;;;;;8.13;4.68;;;;;;;19.10;43.16;98800.22;5033259;28;20227;-55
2022/11/03 08:35:28;;;;;;;14.50;4.80;;;;;;;19.13;42.46;98791.22;5033402;28;20177;-55
2022/11/03 08:37:54;;;;;;;15.60;5.05;;;;;;;19.16;41.90;98802.22;5033413;28;20173;-55
2022/11/03 08:40:19;;;;;;;12.68;5.15;;;;;;;19.34;41.64;98807.50;5033367;28;20173;-54
2022/11/03 08:42:44;;;;;;;11.48;4.53;;;;;;;19.35;41.71;98791.63;5033145;28;20173;-55
2022/11/03 08:45:10;;;;;;;8.18;4.28;;;;;;;19.54;41.29;98801.97;5033269;28;20578;-55
2022/11/03 08:47:36;;;;;;;7.82;5.13;;;;;;;19.56;41.57;98800.00;5032636;28;20208;-55
2022/11/03 08:50:03;;;;;;;9.38;5.00;;;;;;;19.66;41.42;98805.19;5032978;28;20256;-55
2022/11/03 08:52:28;;;;;;;12.15;5.43;;;;;;;19.69;40.64;98799.63;5032835;28;20178;-55
2022/11/03 08:54:54;;;;;;;9.25;5.38;;;;;;;19.80;40.90;98802.81;5033137;28;20193;-55
2022/11/03 08:57:19;;;;;;;10.48;5.57;;;;;;;19.95;41.03;98809.19;5033613;28;20282;-55
2022/11/03 08:59:45;;;;;;;15.13;6.45;;;;;;;20.04;40.73;98805.63;5032671;28;20263;-55
2022/11/03 09:02:10;;;;;;;10.73;4.72;;;;;;;20.00;40.54;98806.09;5032977;28;20177;-55
2022/11/03 09:04:35;;;;;;;9.88;4.40;;;;;;;20.02;40.38;98809.38;5032663;28;20670;-55
2022/11/03 09:07:01;;;;;;;14.15;4.82;;;;;;;20.10;40.49;98804.22;5032913;28;20180;-55
2022/11/03 09:09:26;;;;;;;14.68;4.75;;;;;;;20.00;40.42;98803.47;5032595;28;20261;-55
2022/11/03 09:11:52;;;;;;;10.13;4.80;;;;;;;20.04;40.60;98799.56;5032797;28;20174;-55
2022/11/03 09:14:17;;;;;;;16.02;5.68;;;;;;;20.13;40.61;98798.66;5032349;28;20180;-57
2022/11/03 09:16:42;;;;;;;14.23;4.53;;;;;;;20.18;40.82;98796.38;5032719;28;20278;-55
2022/11/03 09:19:08;;;;;;;10.30;4.82;;;;;;;20.18;40.16;98799.00;5032720;28;20731;-55
2022/11/03 09:21:33;;;;;;;14.25;5.47;;;;;;;20.27;40.13;98788.38;5032442;28;20630;-56
2022/11/03 09:23:59;;;;;;;11.73;5.18;;;;;;;20.41;40.04;98782.53;5032394;28;20252;-56
2022/11/03 09:26:25;;;;;;;11.68;5.63;;;;;;;20.44;40.18;98770.88;5032254;28;20256;-56
2022/11/03 09:28:51;;;;;;;11.20;4.60;;;;;;;20.60;39.64;98781.47;5014597;28;20204;-56
2022/11/03 09:31:17;;;;;;;8.43;5.05;;;;;;;20.60;40.18;98777.03;5031178;28;20651;-56
2022/11/03 09:33:43;;;;;;;11.52;5.95;;;;;;;20.66;39.96;98771.16;5014241;28;20632;-56
2022/11/03 09:36:08;;;;;;;12.30;5.05;;;;;;;20.66;40.45;98779.03;5032115;28;20217;-56
2022/11/03 09:38:34;;;;;;;10.88;5.60;;;;;;;20.62;39.99;98768.97;5031222;28;20608;-56
2022/11/03 09:41:01;;;;;;;8.50;5.03;;;;;;;20.58;39.81;98767.66;5032138;28;20169;-56
2022/11/03 09:43:26;;;;;;;9.07;5.47;;;;;;;20.55;40.60;98767.97;5031922;28;20190;-56
2022/11/03 09:45:52;;;;;;;9.68;5.22;;;;;;;20.53;40.52;98760.25;5032187;28;20223;-56
2022/11/03 09:48:18;;;;;;;11.70;5.85;;;;;;;20.53;40.15;98760.25;5032160;28;20666;-56
2022/11/03 09:50:45;;;;;;;7.45;5.05;;;;;;;20.54;40.25;98758.44;5032100;28;20182;-56
2022/11/03 09:53:11;;;;;;;12.18;5.35;;;;;;;20.44;40.81;98763.81;5031997;28;20170;-56
2022/11/03 09:55:38;;;;;;;12.55;6.15;;;;;;;20.42;40.59;98765.78;5032104;28;20404;-57
2022/11/03 09:58:13;;;;;;;8.60;5.80;;;;;;;20.38;40.82;98767.09;5031699;28;20173;-56
2022/11/03 10:00:38;;;;;;;12.70;5.88;;;;;;;20.29;41.63;98743.56;5031584;28;20212;-56
2022/11/03 10:03:04;;;;;;;10.75;5.68;;;;;;;20.30;41.50;98747.81;5032100;28;20170;-56
2022/11/03 10:05:30;;;;;;;18.17;6.10;;;;;;;20.30;41.55;98747.81;5031900;28;20184;-56
2022/11/03 10:08:03;;;;;;;14.15;6.40;;;;;;;20.25;42.24;98750.09;5032112;28;20555;-56
2022/11/03 10:10:29;;;;;;;15.07;6.00;;;;;;;20.30;41.53;98746.03;5032057;28;20635;-56
2022/11/03 10:12:54;;;;;;;10.27;5.65;;;;;;;20.34;41.70;98749.16;5031774;28;20181;-56
2022/11/03 10:15:22;;;;;;;9.20;5.57;;;;;;;20.33;41.27;98743.06;5031758;28;20625;-56
2022/11/03 10:17:49;;;;;;;13.63;5.95;;;;;;;20.43;40.86;98742.94;5031779;28;20200;-56
2022/11/03 10:20:17;;;;;;;8.50;5.55;;;;;;;20.40;40.63;98745.91;5032005;28;20182;-56
2022/11/03 10:22:45;;;;;;;8.80;5.18;;;;;;;20.47;40.78;98734.59;5032072;28;20166;-56
2022/11/03 10:25:35;;;;;;;12.88;5.55;;;;;;;20.52;40.66;98731.50;5031977;28;20177;-56
2022/11/03 10:28:27;;;;;;;8.98;5.93;;;;;;;20.58;41.07;98725.59;5031985;28;20165;-56
2022/11/03 10:30:56;;;;;;;8.75;5.78;;;;;;;20.71;41.09;98726.78;5032145;28;20165;-57
2022/11/03 10:33:39;;;;;;;13.82;5.70;;;;;;;20.96;40.07;98719.78;5031893;28;20174;-56
2022/11/03 10:36:32;;;;;;;10.77;5.68;;;;;;;21.06;39.80;98717.81;5031781;28;20198;-56
2022/11/03 10:39:00;;;;;;;14.15;5.80;;;;;;;20.95;39.74;98718.13;5028448;28;20295;-56
2022/11/03 10:41:29;;;;;;;8.63;5.50;;;;;;;21.01;39.41;98712.22;5031536;28;20176;-57
2022/11/03 10:44:15;;;;;;;11.23;5.90;;;;;;;21.04;38.94;98704.03;5031281;28;20221;-56
2022/11/03 10:46:57;;;;;;;14.35;5.63;;;;;;;20.99;39.42;98693.97;5031831;28;20541;-56
2022/11/03 10:49:23;;;;;;;7.38;4.93;;;;;;;20.91;38.74;98699.22;5013842;28;20162;-56
2022/11/03 10:51:51;;;;;;;7.95;5.43;;;;;;;20.97;39.23;98695.94;5031710;28;20174;-56
2022/11/03 10:54:20;;;;;;;15.10;5.35;;;;;;;21.03;40.85;98692.66;5031473;28;20197;-56
2022/11/03 10:56:48;;;;;;;9.55;5.22;;;;;;;21.03;38.83;98678.69;5031552;28;20233;-56
2022/11/03 10:59:30;;;;;;;7.20;5.25;;;;;;;21.04;39.69;98686.41;5031350;28;20190;-56
2022/11/03 11:01:59;;;;;;;10.45;5.53;;;;;;;21.00;38.79;98679.84;5031336;28;20166;-56
2022/11/03 11:04:25;;;;;;;11.00;6.50;;;;;;;20.91;39.54;98678.19;5031358;28;20181;-56
2022/11/03 11:06:51;;;;;;;13.90;5.70;;;;;;;20.95;39.90;98673.41;5031309;28;20651;-56
2022/11/03 11:09:24;;;;;;;11.00;5.18;;;;;;;21.14;39.14;98675.72;5031233;28;20256;-56
2022/11/03 11:12:05;;;;;;;11.82;5.68;;;;;;;21.02;39.56;98672.59;5034725;28;20165;-56
2022/11/03 11:14:33;;;;;;;9.43;5.20;;;;;;;21.03;38.81;98674.25;5035053;28;20543;-56
2022/11/03 11:17:00;;;;;;;14.05;6.00;;;;;;;21.03;39.08;98670.81;5034944;28;20198;-56
2022/11/03 11:19:27;;;;;;;8.98;4.95;;;;;;;21.05;39.13;98666.19;5034843;28;20253;-56
2022/11/03 11:21:52;;;;;;;15.23;5.28;;;;;;;21.17;39.34;98652.53;5034655;28;20178;-56
2022/11/03 11:24:42;;;;;;;12.82;5.50;;;;;;;21.33;38.89;98663.03;5034600;28;20196;-56
2022/11/03 11:27:32;;;;;;;11.57;5.03;;;;;;;21.56;38.49;98656.09;5034537;28;20174;-57
2022/11/03 11:30:03;;;;;;;8.88;5.50;;;;;;;21.69;37.99;98648.50;5034502;28;20197;-56
2022/11/03 11:32:38;;;;;;;7.20;4.50;;;;;;;21.64;38.20;98647.34;5034458;28;20663;-57
2022/11/03 11:35:17;;;;;;;11.00;5.32;;;;;;;21.73;38.02;98649.03;5034639;28;20177;-56
2022/11/03 11:37:43;;;;;;;13.63;5.65;;;;;;;21.79;38.29;98627.28;5034489;28;20209;-57
2022/11/03 11:40:13;;;;;;;9.85;5.60;;;;;;;21.85;38.80;98635.31;5034349;28;20170;-56
2022/11/03 11:43:10;;;;;;;8.65;4.50;;;;;;;21.94;37.99;98631.66;5034081;28;20722;-56
2022/11/03 11:46:13;;;;;;;10.68;4.72;;;;;;;21.93;37.56;98622.13;5034063;28;20198;-56
2022/11/03 11:48:38;;;;;;;14.25;5.85;;;;;;;21.96;37.49;98626.22;5034277;28;20661;-56
2022/11/03 11:51:10;;;;;;;9.93;4.75;;;;;;;21.87;37.28;98614.06;5034055;28;20181;-56
2022/11/03 11:53:43;;;;;;;11.68;5.40;;;;;;;21.82;37.02;98614.59;5034325;28;20660;-56
2022/11/03 11:56:11;;;;;;;9.27;5.20;;;;;;;21.85;38.74;98608.94;5034143;28;20198;-57
2022/11/03 11:58:46;;;;;;;11.00;5.22;;;;;;;21.93;38.01;98602.84;5033907;28;20178;-56
2022/11/03 12:01:20;;;;;;;11.40;5.30;;;;;;;21.93;38.19;98606.31;5033830;28;20209;-57